首页
METAR-TAF:

METAR-TAF

机场 :

調布飛行場

調布, 日本

纬度: 35-40N, 经度: 139-32E, 海拔: 41米

当前天气观测

该预报发布于33分钟前的23:30 UTC
风速10节,风向
温度 6°C
湿度 49%
气压 1021 hPa
能见度10公里或以上
少量云层高于3000英尺
多云层高于5000英尺

METAR: RJTF 122330Z 35010KT 9999 FEW030 BKN050 06/M04 Q1021

时间: 09:03 (00:03 UTC)


TAF: 丢失

超过4000个机场的气象观测和天气预报(METAR&TAF报告)。

可查询的气象台以黄色和红色小点在地图上表示。

将鼠标移到小点上方,可查看气象台名称。

然后点击查看天气观测和预报。

如需切换地图:点击带黑十字的绿色按钮放大地图;点击带横线的绿色按钮缩小地图;或者点击绿色箭头查看邻近地区的地图。


METAR-TAF: